Time;durP1;ratioP1;P1;durP2;ratioP2;P2;SDS_P1;SDS_P2;PMS_P1;PMS_P2;Temp;Humidity;BMP_temperature;BMP_pressure;BME280_temperature;BME280_humidity;BME280_pressure;Samples;Min_cycle;Max_cycle;Signal;HPM_P1;HPM_P2
2021/12/31 00:02:20;;;;;;;3.75;2.08;;;13.50;99.90;;;;;;5072600;28;20111;-49
2021/12/31 00:04:46;;;;;;;3.70;2.10;;;13.50;99.90;;;;;;5073118;28;20012;-50
2021/12/31 00:07:11;;;;;;;3.15;2.00;;;13.50;99.90;;;;;;5072973;28;20486;-50
2021/12/31 00:09:37;;;;;;;2.55;1.75;;;13.50;99.90;;;;;;5072456;28;20055;-53
2021/12/31 00:12:04;;;;;;;2.25;1.67;;;13.50;99.90;;;;;;5054498;28;20029;-50
2021/12/31 00:14:31;;;;;;;3.17;1.90;;;13.50;99.90;;;;;;5072565;28;20111;-53
2021/12/31 00:16:57;;;;;;;3.58;2.03;;;13.50;99.90;;;;;;5072896;28;20178;-51
2021/12/31 00:19:23;;;;;;;4.20;2.63;;;13.50;99.90;;;;;;5072173;28;20432;-53
2021/12/31 00:21:50;;;;;;;6.65;2.00;;;13.40;99.90;;;;;;5072736;28;20556;-52
2021/12/31 00:24:16;;;;;;;2.03;1.85;;;13.50;99.90;;;;;;5054496;28;20407;-49
2021/12/31 00:26:42;;;;;;;4.68;2.50;;;13.50;99.90;;;;;;5054713;28;20117;-52
2021/12/31 00:29:07;;;;;;;4.63;2.55;;;13.50;99.90;;;;;;5054274;28;20024;-53
2021/12/31 00:31:33;;;;;;;4.55;1.80;;;13.40;99.90;;;;;;5072627;28;20082;-53
2021/12/31 00:33:59;;;;;;;3.63;2.30;;;13.50;99.90;;;;;;5071634;28;20369;-51
2021/12/31 00:36:45;;;;;;;8.68;5.38;;;13.50;99.90;;;;;;5072417;28;20103;-51
2021/12/31 00:39:15;;;;;;;3.92;2.22;;;13.50;99.90;;;;;;5053826;28;20021;-53
2021/12/31 00:41:42;;;;;;;4.30;2.28;;;13.50;99.90;;;;;;5072278;28;20027;-50
2021/12/31 00:44:08;;;;;;;6.78;2.78;;;13.50;99.90;;;;;;5071963;28;20043;-48
2021/12/31 00:46:34;;;;;;;4.82;2.00;;;13.50;99.90;;;;;;5072179;28;20021;-52
2021/12/31 00:49:02;;;;;;;4.10;1.90;;;13.50;99.90;;;;;;5071887;28;20036;-51
2021/12/31 00:51:28;;;;;;;5.68;2.42;;;13.40;99.90;;;;;;5053944;28;20027;-49
2021/12/31 00:53:54;;;;;;;10.35;2.35;;;13.40;99.90;;;;;;5071792;28;20032;-50
2021/12/31 00:56:19;;;;;;;6.45;3.05;;;13.40;99.90;;;;;;5072074;28;20028;-51
2021/12/31 00:58:46;;;;;;;5.80;2.35;;;13.40;99.90;;;;;;5071680;28;20492;-55
2021/12/31 01:01:17;;;;;;;5.70;3.53;;;13.40;99.90;;;;;;5071694;28;20492;-50
2021/12/31 01:03:42;;;;;;;6.03;2.85;;;13.40;99.90;;;;;;5053977;28;20101;-49
2021/12/31 01:06:08;;;;;;;4.78;2.63;;;13.50;99.90;;;;;;5071933;28;20060;-54
2021/12/31 01:08:34;;;;;;;5.97;2.75;;;13.40;99.90;;;;;;5053788;28;20021;-53
2021/12/31 01:11:00;;;;;;;7.07;3.22;;;13.40;99.90;;;;;;5071566;28;20027;-55
2021/12/31 01:13:34;;;;;;;4.35;2.60;;;13.50;99.90;;;;;;5052540;28;20052;-53
2021/12/31 01:16:01;;;;;;;4.55;2.85;;;13.50;99.90;;;;;;5072046;28;20396;-50
2021/12/31 01:19:44;;;;;;;9.98;2.78;;;13.40;99.90;;;;;;5071790;28;20016;-53
2021/12/31 01:21:13;;;;;;;2.92;2.60;;;13.40;99.90;;;;;;5071293;28;20028;-52
2021/12/31 01:23:38;;;;;;;4.90;2.45;;;13.50;99.90;;;;;;5071187;28;20040;-51
2021/12/31 01:26:04;;;;;;;5.82;2.70;;;13.50;99.90;;;;;;5053756;28;20078;-49
2021/12/31 01:28:30;;;;;;;7.57;2.20;;;13.50;99.90;;;;;;5071391;28;20387;-52
2021/12/31 01:30:55;;;;;;;7.43;2.58;;;13.40;99.90;;;;;;5071263;28;20027;-52
2021/12/31 01:33:21;;;;;;;10.90;3.30;;;13.50;99.90;;;;;;5071329;28;20107;-54
2021/12/31 01:35:46;;;;;;;3.53;2.40;;;13.50;99.90;;;;;;5053367;28;20107;-49
2021/12/31 01:38:12;;;;;;;8.82;2.95;;;13.50;99.90;;;;;;5071394;28;20020;-50
2021/12/31 01:40:37;;;;;;;5.18;3.30;;;13.50;99.90;;;;;;5070979;28;20078;-53
2021/12/31 01:43:03;;;;;;;6.80;3.17;;;13.40;99.90;;;;;;5053247;28;20504;-48
2021/12/31 01:45:32;;;;;;;6.03;2.70;;;13.40;99.90;;;;;;5053545;28;20025;-49
2021/12/31 01:48:09;;;;;;;5.47;2.92;;;13.40;99.90;;;;;;5072094;28;20158;-52
2021/12/31 01:50:36;;;;;;;5.97;3.10;;;13.40;99.90;;;;;;5070925;28;20155;-50
2021/12/31 01:53:02;;;;;;;7.10;3.53;;;13.40;99.90;;;;;;5071045;28;20116;-54
2021/12/31 01:55:30;;;;;;;10.23;4.03;;;13.40;99.90;;;;;;5071240;28;20099;-50
2021/12/31 01:57:57;;;;;;;6.47;3.08;;;13.40;99.90;;;;;;5071149;28;20073;-51
2021/12/31 02:00:23;;;;;;;9.27;4.00;;;13.40;99.90;;;;;;5070775;28;20024;-50
2021/12/31 02:02:49;;;;;;;8.43;3.17;;;13.30;99.90;;;;;;5071078;28;20556;-51
2021/12/31 02:05:15;;;;;;;8.30;3.20;;;13.30;99.90;;;;;;5071184;28;20020;-52
2021/12/31 02:07:41;;;;;;;4.43;2.67;;;13.30;99.90;;;;;;5053387;28;20480;-52
2021/12/31 02:10:08;;;;;;;9.35;3.25;;;13.30;99.90;;;;;;5071040;28;20115;-52
2021/12/31 02:12:38;;;;;;;8.23;3.50;;;13.30;99.90;;;;;;5071265;28;20078;-49
2021/12/31 02:15:04;;;;;;;3.25;2.72;;;13.40;99.90;;;;;;5071171;28;20460;-52
2021/12/31 02:17:29;;;;;;;3.40;2.50;;;13.40;99.90;;;;;;5071671;28;20103;-51
2021/12/31 02:20:02;;;;;;;6.72;2.60;;;13.30;99.90;;;;;;5070553;28;20031;-51
2021/12/31 02:22:28;;;;;;;5.30;3.25;;;13.30;99.90;;;;;;5071023;28;20082;-49
2021/12/31 02:24:56;;;;;;;6.72;3.28;;;13.40;99.90;;;;;;5072520;28;20519;-51
2021/12/31 02:27:23;;;;;;;6.00;3.40;;;13.40;99.90;;;;;;5074590;28;20094;-51
2021/12/31 02:29:49;;;;;;;5.63;2.85;;;13.40;99.90;;;;;;5074203;28;20025;-50
2021/12/31 02:32:15;;;;;;;4.82;2.90;;;13.40;99.90;;;;;;5074452;28;20070;-50
2021/12/31 02:34:40;;;;;;;3.70;2.17;;;13.40;99.90;;;;;;5073862;28;20024;-51
2021/12/31 02:37:06;;;;;;;3.88;2.58;;;13.40;99.90;;;;;;5074503;28;20016;-51
2021/12/31 02:39:34;;;;;;;20.42;4.35;;;13.40;99.90;;;;;;5073983;28;20035;-50
2021/12/31 02:41:59;;;;;;;7.78;2.40;;;13.40;99.90;;;;;;5074234;28;20110;-51
2021/12/31 02:44:25;;;;;;;10.30;3.13;;;13.30;99.90;;;;;;5074119;28;20060;-52
2021/12/31 02:46:50;;;;;;;6.05;2.75;;;13.30;99.90;;;;;;5074342;28;20396;-51
2021/12/31 02:49:19;;;;;;;4.07;2.72;;;13.30;99.90;;;;;;5055886;28;20035;-52
2021/12/31 02:51:44;;;;;;;6.10;2.60;;;13.30;99.90;;;;;;5074118;28;20025;-47
2021/12/31 02:54:12;;;;;;;3.58;2.13;;;13.40;99.90;;;;;;5074112;28;20078;-46
2021/12/31 02:56:38;;;;;;;4.93;2.40;;;13.40;99.90;;;;;;5056299;28;20024;-53
2021/12/31 02:59:04;;;;;;;4.80;2.65;;;13.30;99.90;;;;;;5073792;28;20480;-45
2021/12/31 03:01:30;;;;;;;3.42;2.40;;;13.30;99.90;;;;;;5073812;28;20024;-52
2021/12/31 03:03:56;;;;;;;3.50;2.35;;;13.30;99.90;;;;;;5074142;28;20079;-48
2021/12/31 03:06:23;;;;;;;6.55;2.63;;;13.30;99.90;;;;;;5073982;28;20055;-53
2021/12/31 03:08:49;;;;;;;6.25;2.58;;;13.40;99.90;;;;;;5073886;28;20028;-49
2021/12/31 03:11:18;;;;;;;8.90;2.85;;;13.30;99.90;;;;;;5073299;28;20032;-54
2021/12/31 03:13:45;;;;;;;4.85;2.65;;;13.30;99.90;;;;;;5073664;28;20573;-48
2021/12/31 03:16:11;;;;;;;8.27;3.13;;;13.30;99.90;;;;;;5073889;28;20039;-52
2021/12/31 03:18:38;;;;;;;6.47;2.60;;;13.30;99.90;;;;;;5073725;28;20020;-52
2021/12/31 03:21:10;;;;;;;4.82;2.38;;;13.30;99.90;;;;;;5073354;28;20020;-48
2021/12/31 03:23:36;;;;;;;3.67;2.72;;;13.30;99.90;;;;;;5073384;28;20028;-54
2021/12/31 03:26:02;;;;;;;6.85;2.50;;;13.30;99.90;;;;;;5073401;28;20052;-50
2021/12/31 03:28:28;;;;;;;7.25;2.83;;;13.20;99.90;;;;;;5073791;28;20113;-52
2021/12/31 03:30:54;;;;;;;10.52;3.08;;;13.30;99.90;;;;;;5073167;28;20044;-51
2021/12/31 03:33:20;;;;;;;4.78;2.63;;;13.30;99.90;;;;;;5073569;28;20121;-52
2021/12/31 03:35:46;;;;;;;6.45;2.97;;;13.20;99.90;;;;;;5072311;28;20151;-53
2021/12/31 03:38:12;;;;;;;5.43;2.85;;;13.10;99.90;;;;;;5073180;28;20090;-51
2021/12/31 03:40:38;;;;;;;7.43;2.83;;;13.10;99.90;;;;;;5072840;28;20021;-53
2021/12/31 03:43:04;;;;;;;9.70;2.60;;;13.00;99.90;;;;;;5073207;28;20021;-52
2021/12/31 03:45:30;;;;;;;4.53;3.17;;;13.00;99.90;;;;;;5073174;28;20027;-49
2021/12/31 03:47:55;;;;;;;7.07;2.78;;;13.00;99.90;;;;;;5073243;28;20100;-51
2021/12/31 03:50:21;;;;;;;4.82;2.95;;;13.10;99.90;;;;;;5072735;28;20116;-50
2021/12/31 03:52:47;;;;;;;12.45;3.72;;;13.10;99.90;;;;;;5072983;28;20082;-51
2021/12/31 03:55:12;;;;;;;5.10;3.22;;;13.10;99.90;;;;;;5072996;28;20029;-50
2021/12/31 03:57:38;;;;;;;8.10;3.55;;;13.00;99.90;;;;;;5055027;28;20029;-53
2021/12/31 04:00:06;;;;;;;12.57;3.88;;;13.10;99.90;;;;;;5054505;28;20028;-51
2021/12/31 04:02:31;;;;;;;7.10;3.70;;;13.00;99.90;;;;;;5072951;28;20103;-52
2021/12/31 04:04:57;;;;;;;4.82;3.42;;;13.00;99.90;;;;;;5072646;28;20112;-51
2021/12/31 04:07:23;;;;;;;4.13;3.05;;;13.00;99.90;;;;;;5072652;28;20031;-49
2021/12/31 04:09:48;;;;;;;7.95;3.53;;;13.00;99.90;;;;;;5072384;28;20029;-47
2021/12/31 04:12:14;;;;;;;7.20;3.65;;;12.90;99.90;;;;;;5072776;28;20058;-49
2021/12/31 04:14:40;;;;;;;6.25;3.67;;;13.00;99.90;;;;;;5072592;28;20025;-49
2021/12/31 04:17:05;;;;;;;6.47;3.80;;;13.00;99.90;;;;;;5054607;28;20024;-51
2021/12/31 04:19:31;;;;;;;8.07;3.53;;;13.00;99.90;;;;;;5072053;28;20547;-47
2021/12/31 04:21:57;;;;;;;4.03;3.10;;;13.00;99.90;;;;;;5072304;28;20025;-47
2021/12/31 04:26:55;;;;;;;6.75;3.55;;;12.90;99.90;;;;;;5072678;28;20024;-48
2021/12/31 04:29:20;;;;;;;5.80;3.30;;;13.10;99.90;;;;;;5071971;28;20031;-50
2021/12/31 04:31:46;;;;;;;5.63;3.47;;;13.00;99.90;;;;;;5072141;28;20484;-48
2021/12/31 04:34:11;;;;;;;8.02;3.15;;;13.00;99.90;;;;;;5071628;28;20491;-49
2021/12/31 04:36:37;;;;;;;9.00;3.22;;;12.90;99.90;;;;;;5072106;28;20446;-52
2021/12/31 04:39:03;;;;;;;10.00;3.30;;;12.90;99.90;;;;;;5071801;28;20549;-51
2021/12/31 04:41:28;;;;;;;8.27;3.78;;;12.90;99.90;;;;;;5071958;28;20028;-47
2021/12/31 04:43:54;;;;;;;6.10;3.83;;;12.90;99.90;;;;;;5071939;28;20024;-53
2021/12/31 04:46:19;;;;;;;9.20;3.30;;;13.00;99.90;;;;;;5071918;28;20025;-48
2021/12/31 04:48:45;;;;;;;11.15;3.22;;;12.90;99.90;;;;;;5053970;28;20012;-48
2021/12/31 04:51:10;;;;;;;5.53;3.17;;;13.00;99.90;;;;;;5071639;28;20480;-46
2021/12/31 04:53:36;;;;;;;16.40;4.72;;;13.00;99.90;;;;;;5071640;28;20028;-47
2021/12/31 04:56:01;;;;;;;9.25;3.13;;;13.00;99.90;;;;;;5071863;28;20647;-51
2021/12/31 04:58:27;;;;;;;6.90;3.38;;;13.00;99.90;;;;;;5071922;28;20480;-51
2021/12/31 05:00:53;;;;;;;5.78;3.53;;;12.90;99.90;;;;;;5071389;28;20021;-46
2021/12/31 05:03:19;;;;;;;4.30;3.15;;;12.90;99.90;;;;;;5053538;28;20056;-50
2021/12/31 05:05:45;;;;;;;5.55;2.95;;;12.80;99.90;;;;;;5071836;28;20021;-52
2021/12/31 05:08:11;;;;;;;8.70;3.45;;;12.80;99.90;;;;;;5071587;28;20373;-52
2021/12/31 05:10:36;;;;;;;5.13;3.00;;;12.70;99.90;;;;;;5071430;28;20426;-51
2021/12/31 05:13:04;;;;;;;5.53;3.25;;;12.70;99.90;;;;;;5071802;28;20031;-46
2021/12/31 05:15:33;;;;;;;7.05;3.70;;;12.70;99.90;;;;;;5071861;28;20407;-48
2021/12/31 05:17:59;;;;;;;4.47;2.95;;;12.60;99.90;;;;;;5071583;28;20028;-51
2021/12/31 05:20:25;;;;;;;9.15;4.30;;;12.60;99.90;;;;;;5071264;28;20024;-49
2021/12/31 05:22:52;;;;;;;5.72;2.80;;;12.50;99.90;;;;;;5071183;28;20028;-51
2021/12/31 05:25:18;;;;;;;5.97;2.85;;;12.50;99.90;;;;;;5100028;22;20040;-46
2021/12/31 05:27:43;;;;;;;4.70;3.22;;;12.40;99.90;;;;;;5091829;28;20027;-51
2021/12/31 05:30:10;;;;;;;10.40;3.03;;;12.50;99.90;;;;;;5091529;28;20028;-49
2021/12/31 05:32:35;;;;;;;4.43;2.97;;;12.50;99.90;;;;;;5092046;28;20024;-47
2021/12/31 05:35:01;;;;;;;5.05;2.92;;;12.50;99.90;;;;;;5073037;28;20402;-51
2021/12/31 05:37:26;;;;;;;5.32;2.67;;;12.40;99.90;;;;;;5073469;28;20028;-47
2021/12/31 05:39:52;;;;;;;5.03;3.08;;;12.30;99.90;;;;;;5091304;28;20024;-52
2021/12/31 05:42:17;;;;;;;6.93;3.00;;;12.30;99.90;;;;;;5073765;28;20038;-50
2021/12/31 05:44:43;;;;;;;7.32;3.13;;;12.20;99.90;;;;;;5073506;28;20104;-48
2021/12/31 05:47:08;;;;;;;4.22;3.10;;;12.20;99.90;;;;;;5091532;28;20020;-52
2021/12/31 05:49:34;;;;;;;4.78;3.53;;;12.10;99.90;;;;;;5091353;28;20394;-48
2021/12/31 05:51:59;;;;;;;5.30;3.10;;;12.00;99.90;;;;;;5091266;28;20035;-52
2021/12/31 05:54:25;;;;;;;4.32;3.80;;;12.10;99.90;;;;;;5093823;28;20063;-54
2021/12/31 05:56:51;;;;;;;6.80;2.80;;;12.00;99.90;;;;;;5095154;28;20032;-54
2021/12/31 05:59:17;;;;;;;9.57;3.70;;;12.00;99.90;;;;;;5095627;28;20103;-54
2021/12/31 06:01:42;;;;;;;5.80;2.63;;;11.90;99.90;;;;;;5096416;28;20097;-54
2021/12/31 06:04:08;;;;;;;6.82;3.63;;;11.90;99.90;;;;;;5099832;28;20028;-51
2021/12/31 06:06:34;;;;;;;7.88;3.03;;;11.90;99.90;;;;;;5095759;28;20416;-53
2021/12/31 06:08:59;;;;;;;7.47;3.97;;;11.90;99.90;;;;;;5095422;28;20039;-51
2021/12/31 06:11:25;;;;;;;8.88;3.05;;;11.90;99.90;;;;;;5076789;28;20115;-47
2021/12/31 06:14:00;;;;;;;8.55;3.15;;;11.90;99.90;;;;;;5076893;28;20024;-45
2021/12/31 06:16:26;;;;;;;4.60;3.40;;;11.90;99.90;;;;;;5095282;28;20016;-52
2021/12/31 06:18:51;;;;;;;5.93;3.88;;;11.90;99.90;;;;;;5094983;28;20116;-47
2021/12/31 06:21:17;;;;;;;9.30;4.00;;;12.00;99.90;;;;;;5095074;28;20024;-47
2021/12/31 06:23:43;;;;;;;5.10;2.92;;;11.90;99.90;;;;;;5095346;28;20024;-49
2021/12/31 06:26:09;;;;;;;6.63;3.15;;;11.90;99.90;;;;;;5094809;28;20111;-49
2021/12/31 06:28:35;;;;;;;7.70;3.30;;;11.80;99.90;;;;;;5094843;28;20103;-48
2021/12/31 06:31:00;;;;;;;6.00;3.13;;;11.80;99.90;;;;;;5094642;28;20458;-49
2021/12/31 06:33:26;;;;;;;6.82;3.60;;;11.80;99.90;;;;;;5094842;28;20024;-47
2021/12/31 06:35:51;;;;;;;5.47;3.58;;;11.70;99.90;;;;;;5076239;28;20016;-50
2021/12/31 06:38:18;;;;;;;7.32;2.97;;;11.70;99.90;;;;;;5094749;28;20044;-50
2021/12/31 06:40:43;;;;;;;9.38;3.63;;;11.50;99.90;;;;;;5094428;28;20024;-49
2021/12/31 06:43:09;;;;;;;5.85;3.03;;;11.40;99.90;;;;;;5076233;28;20020;-52
2021/12/31 06:45:35;;;;;;;6.88;3.45;;;11.40;99.90;;;;;;5094628;28;20111;-47
2021/12/31 06:48:00;;;;;;;8.57;3.53;;;11.40;99.90;;;;;;5094523;28;20050;-46
2021/12/31 06:50:26;;;;;;;7.80;3.20;;;11.30;99.90;;;;;;5094123;28;20550;-47
2021/12/31 06:52:51;;;;;;;4.53;3.25;;;11.30;99.90;;;;;;5094312;28;20391;-51
2021/12/31 06:55:17;;;;;;;5.75;3.58;;;11.40;99.90;;;;;;5094402;28;20123;-47
2021/12/31 06:57:42;;;;;;;5.63;3.10;;;11.30;99.90;;;;;;5094347;28;20027;-50
2021/12/31 07:00:09;;;;;;;5.07;3.40;;;11.30;99.90;;;;;;5094036;28;20505;-49
2021/12/31 07:02:35;;;;;;;5.65;3.88;;;11.30;99.90;;;;;;5094300;28;20479;-49
2021/12/31 07:05:00;;;;;;;4.78;3.17;;;11.20;99.90;;;;;;5094036;28;20039;-49
2021/12/31 07:07:26;;;;;;;4.60;3.50;;;11.20;99.90;;;;;;5094377;28;20497;-47
2021/12/31 07:09:52;;;;;;;6.00;3.63;;;11.10;99.90;;;;;;5075868;28;20364;-45
2021/12/31 07:12:17;;;;;;;7.18;4.28;;;11.10;99.90;;;;;;5092672;28;20028;-47
2021/12/31 07:14:42;;;;;;;5.45;3.80;;;11.00;99.90;;;;;;5093889;28;20039;-51
2021/12/31 07:17:08;;;;;;;5.53;4.25;;;11.10;99.90;;;;;;5093982;28;20048;-46
2021/12/31 07:19:34;;;;;;;5.80;3.67;;;11.10;99.90;;;;;;5093901;28;20115;-47
2021/12/31 07:22:00;;;;;;;7.05;3.35;;;11.00;99.90;;;;;;5094147;28;20046;-47
2021/12/31 07:24:26;;;;;;;6.00;4.28;;;11.00;99.90;;;;;;5093752;28;20012;-50
2021/12/31 07:26:52;;;;;;;6.60;3.65;;;11.00;99.90;;;;;;5075974;28;20031;-50
2021/12/31 07:29:17;;;;;;;5.95;3.70;;;11.00;99.90;;;;;;5093849;28;20043;-51
2021/12/31 07:31:43;;;;;;;5.57;3.40;;;10.90;99.90;;;;;;5075573;28;20031;-47
2021/12/31 07:34:08;;;;;;;7.35;3.75;;;10.90;99.90;;;;;;5093051;28;20015;-47
2021/12/31 07:36:34;;;;;;;8.65;3.55;;;10.80;99.90;;;;;;5093833;28;20047;-53
2021/12/31 07:39:04;;;;;;;5.18;3.10;;;10.80;99.90;;;;;;5093328;28;20487;-48
2021/12/31 07:41:30;;;;;;;6.50;4.43;;;10.80;99.90;;;;;;5093716;28;20510;-53
2021/12/31 07:43:56;;;;;;;5.82;3.60;;;10.80;99.90;;;;;;5093515;28;20028;-50
2021/12/31 07:46:21;;;;;;;2.97;2.70;;;10.80;99.90;;;;;;5075134;28;20016;-49
2021/12/31 07:48:47;;;;;;;6.78;4.32;;;10.80;99.90;;;;;;5093340;28;20387;-50
2021/12/31 07:51:12;;;;;;;3.55;3.17;;;10.70;99.90;;;;;;5092862;28;20106;-54
2021/12/31 07:53:38;;;;;;;9.02;3.63;;;10.70;99.90;;;;;;5087044;28;20138;-47
2021/12/31 07:56:03;;;;;;;8.88;3.95;;;10.70;99.90;;;;;;5058585;28;20027;-49
2021/12/31 07:58:29;;;;;;;5.10;3.53;;;10.70;99.90;;;;;;5074761;28;20028;-47
2021/12/31 08:00:55;;;;;;;4.18;3.50;;;10.70;99.90;;;;;;5092660;28;20028;-47
2021/12/31 08:03:20;;;;;;;7.78;3.40;;;10.70;99.90;;;;;;5079256;28;20028;-48
2021/12/31 08:05:46;;;;;;;7.03;3.65;;;10.80;99.90;;;;;;5078041;28;20077;-48
2021/12/31 08:08:12;;;;;;;4.93;3.50;;;10.80;99.90;;;;;;5093164;28;20028;-52
2021/12/31 08:10:38;;;;;;;4.25;3.05;;;10.90;99.90;;;;;;5091041;28;20028;-53
2021/12/31 08:13:04;;;;;;;6.95;3.63;;;10.90;99.90;;;;;;5091178;28;20154;-46
2021/12/31 08:15:30;;;;;;;9.13;3.30;;;11.00;99.90;;;;;;5092424;28;20241;-49
2021/12/31 08:17:56;;;;;;;6.78;3.92;;;11.00;99.90;;;;;;5093224;28;20028;-52
2021/12/31 08:20:23;;;;;;;8.95;3.47;;;11.00;99.90;;;;;;5088872;28;20024;-48
2021/12/31 08:22:49;;;;;;;4.00;2.92;;;10.90;99.90;;;;;;5072201;28;20407;-48
2021/12/31 08:25:15;;;;;;;3.05;2.83;;;10.90;99.90;;;;;;5081045;28;20089;-47
2021/12/31 08:27:41;;;;;;;5.22;3.80;;;10.90;99.90;;;;;;5092523;28;20464;-50
2021/12/31 08:30:07;;;;;;;5.80;3.90;;;10.90;99.90;;;;;;5092625;28;20030;-44
2021/12/31 08:32:34;;;;;;;9.15;3.50;;;10.90;99.90;;;;;;5093136;28;20084;-45
2021/12/31 08:34:59;;;;;;;10.73;3.20;;;10.90;99.90;;;;;;5092507;28;20087;-45
2021/12/31 08:37:25;;;;;;;8.48;3.50;;;10.90;99.90;;;;;;5092759;28;20032;-48
2021/12/31 08:39:51;;;;;;;5.70;3.28;;;10.90;99.90;;;;;;5092252;28;20082;-54
2021/12/31 08:42:16;;;;;;;5.35;3.40;;;10.90;99.90;;;;;;5092899;28;20016;-47
2021/12/31 08:44:42;;;;;;;8.10;3.35;;;10.90;99.90;;;;;;5092419;28;20036;-48
2021/12/31 08:47:07;;;;;;;6.40;3.55;;;10.90;99.90;;;;;;5092540;28;20403;-51
2021/12/31 08:49:33;;;;;;;5.13;3.30;;;10.90;99.90;;;;;;5091958;28;20028;-47
2021/12/31 08:52:00;;;;;;;4.15;3.25;;;11.00;99.90;;;;;;5074249;28;20115;-44
2021/12/31 08:54:26;;;;;;;6.28;3.13;;;11.00;99.90;;;;;;5092138;28;20548;-50
2021/12/31 08:56:51;;;;;;;7.10;3.90;;;11.30;99.90;;;;;;5092629;28;20031;-46
2021/12/31 08:59:19;;;;;;;3.47;2.50;;;12.10;99.90;;;;;;5091605;28;20028;-47
2021/12/31 09:01:46;;;;;;;4.22;2.58;;;13.00;99.90;;;;;;5074131;28;20052;-48
2021/12/31 09:04:12;;;;;;;7.03;2.85;;;14.00;99.90;;;;;;5091807;28;20035;-45
2021/12/31 09:06:38;;;;;;;3.55;2.35;;;14.90;99.90;;;;;;5091941;28;20020;-45
2021/12/31 09:09:04;;;;;;;3.88;2.47;;;15.50;99.90;;;;;;5091452;28;20032;-50
2021/12/31 09:11:30;;;;;;;4.88;2.92;;;16.10;99.90;;;;;;5091628;28;20031;-45
2021/12/31 09:13:57;;;;;;;2.92;2.13;;;16.40;99.90;;;;;;5092589;28;20028;-49
2021/12/31 09:16:23;;;;;;;6.95;2.30;;;16.80;99.90;;;;;;5091749;28;20024;-46
2021/12/31 09:18:48;;;;;;;5.07;2.67;;;17.20;99.90;;;;;;5073752;28;20143;-48
2021/12/31 09:21:17;;;;;;;3.08;2.22;;;17.40;99.90;;;;;;5092019;28;20023;-50
2021/12/31 09:23:46;;;;;;;4.40;3.42;;;17.60;99.90;;;;;;5091945;28;20039;-48
2021/12/31 09:26:12;;;;;;;5.63;3.70;;;17.80;99.90;;;;;;5091695;28;20512;-46
2021/12/31 09:28:38;;;;;;;5.40;2.53;;;18.00;99.90;;;;;;5073903;28;20085;-50
2021/12/31 09:31:05;;;;;;;8.48;3.15;;;18.40;99.90;;;;;;5091524;28;20495;-47
2021/12/31 09:33:31;;;;;;;6.03;2.63;;;18.60;99.90;;;;;;5091161;28;20027;-50
2021/12/31 09:35:56;;;;;;;3.28;2.20;;;18.80;99.90;;;;;;5091700;28;20028;-48
2021/12/31 09:38:22;;;;;;;4.22;2.58;;;18.90;99.90;;;;;;5091508;28;20024;-49
2021/12/31 09:40:48;;;;;;;2.28;1.73;;;19.10;99.90;;;;;;5091084;28;20036;-49
2021/12/31 09:43:14;;;;;;;5.22;2.35;;;19.20;99.90;;;;;;5091560;28;20369;-47
2021/12/31 09:45:42;;;;;;;6.30;2.25;;;19.30;99.90;;;;;;5091556;28;20020;-48
2021/12/31 09:48:13;;;;;;;2.88;1.92;;;19.40;99.80;;;;;;5073722;28;20020;-47
2021/12/31 09:50:41;;;;;;;3.45;2.13;;;18.90;99.90;;;;;;5091231;28;20407;-50
2021/12/31 09:53:08;;;;;;;7.07;2.15;;;18.70;99.90;;;;;;5091612;28;20295;-47
2021/12/31 09:55:45;;;;;;;2.00;1.70;;;18.70;99.90;;;;;;5091338;28;20081;-47
2021/12/31 09:58:13;;;;;;;2.95;2.03;;;18.50;99.90;;;;;;5091452;28;20028;-51
2021/12/31 10:00:42;;;;;;;5.38;1.88;;;18.40;99.90;;;;;;5091174;28;20055;-48
2021/12/31 10:03:21;;;;;;;3.15;2.10;;;18.10;99.90;;;;;;5091355;28;20042;-51
2021/12/31 10:05:51;;;;;;;3.13;1.90;;;17.50;99.90;;;;;;5091599;28;20387;-48
2021/12/31 10:08:25;;;;;;;2.85;2.40;;;17.30;99.90;;;;;;5092332;28;20044;-48
2021/12/31 10:11:12;;;;;;;2.42;1.88;;;17.20;99.90;;;;;;5091416;28;20511;-48
2021/12/31 10:13:42;;;;;;;6.03;1.83;;;17.20;99.90;;;;;;5091544;28;20120;-48
2021/12/31 10:16:28;;;;;;;2.13;1.90;;;16.90;99.90;;;;;;5073133;28;20032;-48
2021/12/31 10:19:18;;;;;;;4.32;1.92;;;16.60;99.90;;;;;;5091516;28;20107;-50
2021/12/31 10:21:50;;;;;;;5.65;2.00;;;16.30;99.90;;;;;;5091514;28;20020;-46
2021/12/31 10:24:34;;;;;;;5.28;2.10;;;16.10;99.90;;;;;;5073237;28;20016;-55
2021/12/31 10:27:20;;;;;;;3.13;2.17;;;15.90;99.90;;;;;;5091340;28;20024;-47
2021/12/31 10:29:55;;;;;;;3.60;2.00;;;15.70;99.90;;;;;;5091597;28;20024;-49
2021/12/31 10:32:22;;;;;;;;;;;15.80;99.90;;;;;;5073555;28;20032;-52
2021/12/31 10:34:48;;;;;;;5.32;2.38;;;15.80;99.90;;;;;;5091550;28;19986;-50
2021/12/31 10:37:20;;;;;;;4.18;2.22;;;15.90;99.90;;;;;;5089896;28;20579;-51
2021/12/31 10:39:58;;;;;;;7.00;2.80;;;15.90;99.90;;;;;;5090768;28;20082;-49
2021/12/31 10:42:32;;;;;;;3.60;2.03;;;16.00;99.90;;;;;;5091110;28;20016;-48
2021/12/31 10:45:00;;;;;;;2.40;1.90;;;16.10;99.90;;;;;;5088240;28;20016;-51
2021/12/31 10:47:35;;;;;;;7.80;2.35;;;16.20;99.90;;;;;;5083016;28;20059;-47
2021/12/31 10:50:00;;;;;;;4.40;2.53;;;16.20;99.90;;;;;;5086459;28;20028;-45
2021/12/31 10:52:35;;;;;;;3.25;1.88;;;16.00;99.90;;;;;;5076498;28;20085;-50
2021/12/31 10:55:14;;;;;;;5.47;2.17;;;16.00;99.90;;;;;;5094618;28;20028;-47
2021/12/31 10:57:40;;;;;;;2.60;1.95;;;16.10;99.90;;;;;;5078883;28;20028;-50
2021/12/31 11:00:07;;;;;;;2.92;2.15;;;15.90;99.90;;;;;;5073901;28;20086;-45
2021/12/31 11:02:34;;;;;;;4.88;2.28;;;15.80;99.90;;;;;;5074354;28;20098;-49
2021/12/31 11:05:00;;;;;;;4.43;1.98;;;15.60;99.90;;;;;;5087191;28;20024;-47
2021/12/31 11:07:29;;;;;;;2.80;1.80;;;15.50;99.90;;;;;;5075528;28;20035;-45
2021/12/31 11:09:59;;;;;;;3.65;1.83;;;15.40;99.90;;;;;;5081905;28;20037;-48
2021/12/31 11:12:30;;;;;;;4.70;2.47;;;15.40;99.90;;;;;;5074059;28;20034;-49
2021/12/31 11:14:55;;;;;;;4.03;2.67;;;15.40;99.90;;;;;;5094016;28;20101;-45
2021/12/31 11:17:23;;;;;;;8.57;2.83;;;15.30;99.90;;;;;;5094067;28;20074;-48
2021/12/31 11:19:50;;;;;;;5.68;2.58;;;15.20;99.90;;;;;;5072429;28;20032;-48
2021/12/31 11:22:24;;;;;;;6.43;2.47;;;14.90;99.90;;;;;;5093632;28;20028;-49
2021/12/31 11:27:26;;;;;;;5.07;2.58;;;14.50;99.90;;;;;;5070804;28;20243;-49
2021/12/31 11:29:52;;;;;;;4.00;2.03;;;14.30;99.90;;;;;;5072389;28;20020;-48
2021/12/31 11:32:18;;;;;;;4.28;2.08;;;14.30;99.90;;;;;;5055776;28;20051;-51
2021/12/31 11:34:44;;;;;;;3.38;2.40;;;14.40;99.90;;;;;;5055002;28;20381;-49
2021/12/31 11:37:45;;;;;;;2.30;2.05;;;14.40;99.90;;;;;;5055408;28;20024;-47
2021/12/31 11:40:31;;;;;;;6.03;2.00;;;14.40;99.90;;;;;;5071291;28;20037;-47
2021/12/31 11:43:16;;;;;;;3.53;2.50;;;14.50;99.90;;;;;;5055353;28;20023;-47
2021/12/31 11:45:42;;;;;;;2.97;2.25;;;14.40;99.90;;;;;;5058593;28;20016;-46
2021/12/31 11:48:48;;;;;;;2.90;2.30;;;14.40;99.90;;;;;;5069756;28;20111;-48
2021/12/31 11:51:29;;;;;;;3.95;2.17;;;14.40;99.90;;;;;;5045752;28;20556;-49
2021/12/31 11:53:57;;;;;;;3.13;2.17;;;14.30;99.90;;;;;;5051676;28;20025;-48
2021/12/31 11:56:39;;;;;;;4.13;2.50;;;14.20;99.90;;;;;;5074715;28;20046;-49
2021/12/31 11:59:08;;;;;;;2.22;2.03;;;14.30;99.90;;;;;;5034674;28;20017;-48
2021/12/31 12:01:36;;;;;;;4.43;2.38;;;14.20;99.90;;;;;;5053166;28;20061;-46
2021/12/31 12:04:32;;;;;;;5.47;2.28;;;14.10;99.90;;;;;;5035225;28;20389;-48
2021/12/31 12:07:02;;;;;;;5.70;2.53;;;14.00;99.90;;;;;;5042244;28;20056;-49
2021/12/31 12:09:37;;;;;;;3.95;2.00;;;13.90;99.90;;;;;;5065259;28;20081;-50
2021/12/31 12:12:04;;;;;;;3.90;2.23;;;14.00;99.90;;;;;;5074988;28;20122;-46
2021/12/31 12:14:40;;;;;;;5.05;2.38;;;14.00;99.90;;;;;;5074246;28;20269;-49
2021/12/31 12:17:07;;;;;;;3.80;2.50;;;14.00;99.90;;;;;;5055150;28;20518;-47
2021/12/31 12:19:45;;;;;;;2.70;2.00;;;14.00;99.90;;;;;;5072400;28;20033;-47
2021/12/31 12:22:34;;;;;;;5.18;2.38;;;14.00;99.90;;;;;;5071377;28;20016;-46
2021/12/31 12:25:01;;;;;;;3.28;2.17;;;13.90;99.90;;;;;;5063234;28;20115;-47
2021/12/31 12:27:27;;;;;;;5.82;2.55;;;13.90;99.90;;;;;;5070683;28;20485;-51
2021/12/31 12:29:55;;;;;;;7.57;3.92;;;13.90;99.90;;;;;;5068062;28;20036;-48
2021/12/31 12:32:35;;;;;;;4.63;2.78;;;14.00;99.90;;;;;;5049494;28;20029;-50
2021/12/31 12:35:14;;;;;;;8.50;3.40;;;14.00;99.90;;;;;;5055575;28;20429;-52
2021/12/31 12:37:40;;;;;;;7.05;3.40;;;14.00;99.90;;;;;;5052002;28;20031;-49
2021/12/31 12:40:06;;;;;;;3.50;3.20;;;14.00;99.90;;;;;;5036947;28;20028;-48
2021/12/31 12:42:32;;;;;;;4.00;3.60;;;14.10;99.90;;;;;;5065064;28;20071;-49
2021/12/31 12:45:00;;;;;;;7.25;2.72;;;14.10;99.90;;;;;;5061167;28;20036;-47
2021/12/31 12:47:26;;;;;;;5.72;3.40;;;14.00;99.90;;;;;;5057809;28;20032;-51
2021/12/31 12:49:59;;;;;;;3.72;3.38;;;14.10;99.90;;;;;;5065892;28;20029;-48
2021/12/31 12:52:25;;;;;;;7.22;4.00;;;14.00;99.90;;;;;;5052703;28;20025;-47
2021/12/31 12:55:14;;;;;;;5.35;3.97;;;14.00;99.90;;;;;;5035551;28;20435;-47